»·PEaware :: DAL2637 KSEA-KLAS

DAL2637 :: KSEA-KLAS

FLIGHT INFORMATION

Flight Status: Arrived
Operator:
Delta Air Lines
More flights by this operator :: More flights under this callsign
Pilot: Raphael S. (13144)
Aircraft: BOEING 737-800
(B738)
More flights by this aircraft type
Origin: KSEA Seattle-Tacoma Intl
United States
Destination: KLAS McCarran Intl
United States
More flights between these airports :: More routes between these airports
Route: +SUMMA1 LKV J5 FMG J92 BTY SUNST4
File this flight plan on PilotEdge
Remarks:
Altitude:
(Current/Filed)
37,000ft
Speed:
(Current/Filed)
450kts
Departed: 06-Jun-18 07:12 PM
Arrived: 06-Jun-18 09:20 PM
Distance/Time
Traveled:
753nm/2:08
Distance/Time
To Go:
Arrived

Flight Plot

Page will automatically refresh every two minutes.

Flight plan parsing failed; only flown route is shown


Map Options




Map Legend


Flown Route
Filed Route
Departure Airport
Arrival Airport
Navaid (VOR, NDB)
Fix

Horizontal Profiles

Position Reports

Time Latitude Longitude Heading Altitude Ground
Speed
06-Jun-18 18:34 47.438575 -122.300483 295 440ft 0kts
06-Jun-18 18:35 47.438575 -122.300483 295 440ft 0kts
06-Jun-18 18:36 47.438575 -122.300483 295 440ft 0kts
06-Jun-18 18:37 47.438575 -122.300483 295 440ft 0kts
06-Jun-18 18:38 47.438575 -122.300483 295 440ft 0kts
06-Jun-18 18:39 47.438575 -122.300483 295 440ft 0kts
06-Jun-18 18:40 47.438575 -122.300483 295 440ft 0kts
06-Jun-18 18:41 47.438575 -122.300483 295 440ft 0kts
06-Jun-18 18:42 47.438575 -122.300483 295 440ft 0kts
06-Jun-18 18:43 47.438575 -122.300483 295 440ft 0kts
06-Jun-18 18:44 47.438575 -122.300483 295 440ft 0kts
06-Jun-18 18:45 47.438575 -122.300483 295 440ft 0kts
06-Jun-18 18:46 47.438575 -122.300483 295 440ft 0kts
06-Jun-18 18:47 47.438575 -122.300483 295 440ft 0kts
06-Jun-18 18:48 47.438575 -122.300483 295 440ft 0kts
06-Jun-18 18:49 47.438575 -122.300483 295 440ft 0kts
06-Jun-18 18:50 47.438575 -122.300483 295 440ft 0kts
06-Jun-18 18:51 47.438575 -122.300483 295 440ft 0kts
06-Jun-18 18:52 47.438575 -122.300483 295 440ft 0kts
06-Jun-18 18:53 47.438575 -122.300483 295 440ft 0kts
06-Jun-18 18:54 47.438575 -122.300483 295 440ft 0kts
06-Jun-18 18:55 47.438575 -122.300483 295 440ft 0kts
06-Jun-18 18:56 47.438575 -122.300483 295 440ft 0kts
06-Jun-18 18:57 47.438575 -122.300483 295 440ft 0kts
06-Jun-18 18:58 47.438490 -122.300215 295 441ft 2kts
06-Jun-18 18:59 47.438600 -122.299619 194 440ft 0kts
06-Jun-18 19:00 47.438644 -122.299603 195 440ft 0kts
06-Jun-18 19:01 47.438644 -122.299603 195 440ft 0kts
06-Jun-18 19:02 47.437449 -122.300579 247 440ft 11kts
06-Jun-18 19:03 47.437690 -122.305500 285 441ft 12kts
06-Jun-18 19:04 47.440126 -122.306316 2 441ft 9kts
06-Jun-18 19:05 47.443603 -122.306306 3 441ft 15kts
06-Jun-18 19:06 47.448474 -122.306271 1 441ft 19kts
06-Jun-18 19:07 47.454037 -122.306232 1 440ft 19kts
06-Jun-18 19:08 47.459152 -122.306176 0 441ft 17kts
06-Jun-18 19:09 47.463566 -122.306221 331 441ft 8kts
06-Jun-18 19:10 47.463647 -122.306343 298 441ft 0kts
06-Jun-18 19:11 47.463484 -122.307635 200 441ft 9kts
06-Jun-18 19:12 47.438581 -122.307715 179 891ft 165kts
06-Jun-18 19:13 47.387558 -122.306669 184 2980ft 205kts
06-Jun-18 19:14 47.330037 -122.307629 180 5415ft 220kts
06-Jun-18 19:15 47.266289 -122.309009 183 7650ft 234kts
06-Jun-18 19:16 47.198205 -122.280130 160 9448ft 286kts
06-Jun-18 19:17 47.120952 -122.238878 163 11766ft 310kts
06-Jun-18 19:18 47.039446 -122.197942 163 14011ft 320kts
06-Jun-18 19:19 46.954646 -122.155568 163 16609ft 332kts
06-Jun-18 19:20 46.867741 -122.112203 163 18867ft 344kts
06-Jun-18 19:21 46.778285 -122.067693 163 20933ft 354kts
06-Jun-18 19:22 46.685388 -122.021570 164 22842ft 363kts
06-Jun-18 19:23 46.589214 -121.975563 168 24569ft 371kts
06-Jun-18 19:24 46.489466 -121.937531 168 26134ft 380kts
06-Jun-18 19:25 46.390213 -121.899836 168 27522ft 387kts
06-Jun-18 19:26 46.285436 -121.860103 168 28806ft 396kts
06-Jun-18 19:27 46.194403 -121.825613 169 30057ft 395kts
06-Jun-18 19:28 46.090923 -121.786494 169 31450ft 392kts
06-Jun-18 19:29 45.987211 -121.747440 169 32684ft 389kts
06-Jun-18 19:30 45.886044 -121.709477 169 33761ft 386kts
06-Jun-18 19:31 45.784090 -121.671339 169 34757ft 384kts
06-Jun-18 19:32 45.681744 -121.633184 169 35661ft 382kts
06-Jun-18 19:33 45.579856 -121.595305 169 36456ft 380kts
06-Jun-18 19:34 45.477785 -121.557547 169 36855ft 388kts
06-Jun-18 19:35 45.371431 -121.518408 169 36853ft 406kts
06-Jun-18 19:36 45.260473 -121.477626 169 36850ft 424kts
06-Jun-18 19:37 45.145866 -121.435833 169 36848ft 436kts
06-Jun-18 19:38 45.030073 -121.395844 169 36843ft 434kts
06-Jun-18 19:39 44.913919 -121.355549 168 36857ft 435kts
06-Jun-18 19:40 44.799037 -121.313232 168 36911ft 435kts
06-Jun-18 19:41 44.683428 -121.270069 168 36917ft 435kts
06-Jun-18 19:42 44.566979 -121.227616 168 36917ft 434kts
06-Jun-18 19:43 44.450350 -121.185517 168 36917ft 434kts
06-Jun-18 19:44 44.334093 -121.143786 169 36915ft 434kts
06-Jun-18 19:45 44.218302 -121.102488 169 36918ft 434kts
06-Jun-18 19:46 44.102810 -121.061565 169 36920ft 433kts
06-Jun-18 19:47 43.987572 -121.020786 169 36922ft 433kts
06-Jun-18 19:48 43.873024 -120.980805 169 36932ft 433kts
06-Jun-18 19:49 43.758982 -120.940684 169 36929ft 432kts
06-Jun-18 19:50 43.643721 -120.900418 169 36927ft 432kts
06-Jun-18 19:51 43.527459 -120.859987 169 36927ft 432kts
06-Jun-18 19:52 43.411112 -120.819724 169 36927ft 432kts
06-Jun-18 19:53 43.295838 -120.779926 169 36926ft 432kts
06-Jun-18 19:54 43.180879 -120.740438 169 36926ft 432kts
06-Jun-18 19:55 43.065273 -120.700786 169 36958ft 432kts
06-Jun-18 19:56 42.949771 -120.661370 168 36969ft 435kts
06-Jun-18 19:57 42.833961 -120.622085 168 36975ft 437kts
06-Jun-18 19:58 42.716826 -120.582510 168 36976ft 437kts
06-Jun-18 19:59 42.600069 -120.543164 168 36974ft 436kts
06-Jun-18 20:00 42.484242 -120.504389 168 36973ft 436kts
06-Jun-18 20:01 42.366967 -120.469095 169 36972ft 436kts
06-Jun-18 20:02 42.257688 -120.437184 169 36972ft 435kts
06-Jun-18 20:03 42.140719 -120.403405 169 36970ft 435kts
06-Jun-18 20:04 42.023700 -120.369801 169 36970ft 435kts
06-Jun-18 20:05 41.907408 -120.336482 170 36967ft 435kts
06-Jun-18 20:06 41.798740 -120.305393 170 36967ft 435kts
06-Jun-18 20:07 41.682078 -120.271974 170 36964ft 435kts
06-Jun-18 20:08 41.565016 -120.238434 169 36963ft 435kts
06-Jun-18 20:09 41.466914 -120.210315 169 36963ft 435kts
06-Jun-18 20:10 41.349172 -120.176562 169 36961ft 435kts
06-Jun-18 20:11 41.231498 -120.142815 169 36961ft 435kts
06-Jun-18 20:12 41.114097 -120.109173 169 36960ft 435kts
06-Jun-18 20:13 40.997264 -120.075635 170 36961ft 447kts
06-Jun-18 20:14 40.878225 -120.041467 170 36967ft 449kts
06-Jun-18 20:15 40.757658 -120.006934 170 36973ft 450kts
06-Jun-18 20:16 40.636186 -119.972365 170 36973ft 450kts
06-Jun-18 20:17 40.515167 -119.938626 170 36976ft 451kts
06-Jun-18 20:18 40.393935 -119.903395 170 36971ft 445kts
06-Jun-18 20:19 40.275498 -119.869041 170 36985ft 440kts
06-Jun-18 20:20 40.156873 -119.834854 170 37005ft 440kts
06-Jun-18 20:21 40.038212 -119.800727 170 37010ft 440kts
06-Jun-18 20:22 39.919873 -119.766761 170 37007ft 439kts
06-Jun-18 20:23 39.805078 -119.733837 170 37008ft 439kts
06-Jun-18 20:24 39.697168 -119.703042 170 36998ft 439kts
06-Jun-18 20:25 39.579675 -119.669280 170 36970ft 439kts
06-Jun-18 20:26 39.476571 -119.589306 138 36948ft 453kts
06-Jun-18 20:27 39.387090 -119.475838 138 36991ft 453kts
06-Jun-18 20:28 39.298252 -119.362747 138 36999ft 453kts
06-Jun-18 20:29 39.210807 -119.251827 138 36996ft 452kts
06-Jun-18 20:30 39.123165 -119.141671 138 36940ft 453kts
06-Jun-18 20:31 39.034167 -119.030019 138 36893ft 452kts
06-Jun-18 20:32 38.945117 -118.918730 139 36891ft 457kts
06-Jun-18 20:33 38.856440 -118.808663 140 36893ft 464kts
06-Jun-18 20:34 38.773438 -118.706059 140 36893ft 463kts
06-Jun-18 20:35 38.682668 -118.594099 139 36894ft 463kts
06-Jun-18 20:36 38.595564 -118.486735 140 36894ft 463kts
06-Jun-18 20:37 38.504025 -118.374040 140 36943ft 462kts
06-Jun-18 20:38 38.413420 -118.263998 140 37028ft 462kts
06-Jun-18 20:39 38.320905 -118.152235 140 36969ft 462kts
06-Jun-18 20:40 38.228978 -118.041319 140 36848ft 461kts
06-Jun-18 20:41 38.136675 -117.929957 140 36901ft 462kts
06-Jun-18 20:42 38.044408 -117.818565 140 36934ft 462kts
06-Jun-18 20:43 37.946897 -117.717085 151 36904ft 457kts
06-Jun-18 20:44 37.843012 -117.629976 150 36937ft 457kts
06-Jun-18 20:45 37.739090 -117.541385 150 36960ft 456kts
06-Jun-18 20:46 37.634619 -117.452001 149 36954ft 456kts
06-Jun-18 20:47 37.530702 -117.362883 149 36955ft 456kts
06-Jun-18 20:48 37.427224 -117.274241 150 36952ft 456kts
06-Jun-18 20:49 37.323386 -117.186165 150 36918ft 437kts
06-Jun-18 20:50 37.224994 -117.102887 151 34390ft 420kts
06-Jun-18 20:51 37.130029 -117.022836 151 31966ft 416kts
06-Jun-18 20:52 37.036070 -116.943893 151 29607ft 412kts
06-Jun-18 20:53 36.941277 -116.864508 150 27252ft 411kts
06-Jun-18 20:54 36.850067 -116.788248 150 24987ft 397kts
06-Jun-18 20:55 36.768286 -116.704182 135 23841ft 385kts
06-Jun-18 20:56 36.698419 -116.603833 135 23837ft 387kts
06-Jun-18 20:57 36.628451 -116.503909 135 23837ft 387kts
06-Jun-18 20:58 36.559013 -116.405064 134 21203ft 371kts
06-Jun-18 20:59 36.494158 -116.313146 135 19754ft 360kts
06-Jun-18 21:00 36.429296 -116.221596 135 19077ft 354kts
06-Jun-18 21:01 36.365091 -116.131233 135 18220ft 351kts
06-Jun-18 21:02 36.301249 -116.041654 134 17370ft 346kts
06-Jun-18 21:03 36.239487 -115.955102 134 16575ft 312kts
06-Jun-18 21:04 36.188348 -115.870867 115 16078ft 317kts
06-Jun-18 21:05 36.156494 -115.768663 114 15290ft 323kts
06-Jun-18 21:06 36.124521 -115.667476 114 14039ft 306kts
06-Jun-18 21:07 36.093180 -115.569584 114 14017ft 308kts
06-Jun-18 21:08 36.061588 -115.471596 114 14002ft 309kts
06-Jun-18 21:09 36.029924 -115.373338 111 13994ft 310kts
06-Jun-18 21:10 36.021002 -115.269025 97 12257ft 312kts
06-Jun-18 21:11 36.014864 -115.169079 97 10436ft 289kts
06-Jun-18 21:12 36.046986 -115.084859 23 8700ft 308kts
06-Jun-18 21:13 36.123608 -115.049467 21 7113ft 290kts
06-Jun-18 21:14 36.193847 -115.017827 21 5987ft 255kts
06-Jun-18 21:15 36.243735 -115.030333 260 6005ft 190kts
06-Jun-18 21:16 36.210265 -115.072581 214 5946ft 163kts
06-Jun-18 21:17 36.174232 -115.105156 214 4150ft 169kts
06-Jun-18 21:18 36.137619 -115.132173 202 3284ft 152kts
06-Jun-18 21:19 36.100838 -115.152291 204 2308ft 144kts
06-Jun-18 21:20 36.084486 -115.161234 187 2189ft 14kts
06-Jun-18 21:21 36.082807 -115.161066 169 2188ft 1kts
06-Jun-18 21:22 36.081626 -115.158303 89 2189ft 20kts
06-Jun-18 21:23 36.082103 -115.153114 19 2188ft 0kts
06-Jun-18 21:24 36.082319 -115.152969 18 2188ft 0kts
06-Jun-18 21:25 36.082319 -115.152969 18 2188ft 0kts
06-Jun-18 21:26 36.082319 -115.152969 18 2188ft 0kts

Navigation Log

Ident Type
Flight plan parsing failed, navigation log unavailable